Time;durP1;ratioP1;P1;durP2;ratioP2;P2;SDS_P1;SDS_P2;PMS_P1;PMS_P2;Temp;Humidity;BMP_temperature;BMP_pressure;BME280_temperature;BME280_humidity;BME280_pressure;Samples;Min_cycle;Max_cycle;Signal;HPM_P1;HPM_P2
2023/05/25 00:00:14;;;;;;;65.35;59.00;;;;;;;13.67;100.00;100941.25;5043383;28;20049;-85
2023/05/25 00:02:43;;;;;;;61.63;55.63;;;;;;;13.70;100.00;100936.28;5034443;28;20527;-85
2023/05/25 00:05:10;;;;;;;71.47;64.82;;;;;;;13.73;100.00;100948.38;5042484;28;20460;-85
2023/05/25 00:07:37;;;;;;;77.13;69.97;;;;;;;13.66;100.00;100945.75;5041650;28;20099;-85
2023/05/25 00:10:07;;;;;;;82.38;75.05;;;;;;;13.73;100.00;100949.19;5042846;28;20065;-84
2023/05/25 00:12:36;;;;;;;74.45;67.72;;;;;;;13.68;100.00;100950.91;5040050;28;20052;-85
2023/05/25 00:15:04;;;;;;;69.22;62.58;;;;;;;13.82;100.00;100954.22;5043632;28;20128;-84
2023/05/25 00:17:31;;;;;;;98.85;90.55;;;;;;;13.63;100.00;100956.06;5037203;28;20041;-85
2023/05/25 00:20:05;;;;;;;76.63;69.80;;;;;;;13.09;100.00;100950.34;5045050;28;20437;-84
2023/05/25 00:22:33;;;;;;;56.78;51.28;;;;;;;13.42;100.00;100960.75;5038056;28;20408;-85
2023/05/25 00:25:00;;;;;;;66.00;59.90;;;;;;;13.32;100.00;100948.97;5042676;28;20490;-84
2023/05/25 00:27:27;;;;;;;58.03;52.22;;;;;;;12.60;100.00;100934.03;5035775;28;20068;-85
2023/05/25 00:29:55;;;;;;;59.92;54.05;;;;;;;13.01;100.00;100951.44;5042553;28;20049;-85
2023/05/25 00:32:22;;;;;;;70.47;63.78;;;;;;;13.35;100.00;100945.88;5036138;28;20056;-85
2023/05/25 00:34:48;;;;;;;65.82;59.53;;;;;;;13.36;100.00;100945.63;5037084;28;20053;-85
2023/05/25 00:37:15;;;;;;;54.75;49.15;;;;;;;12.84;100.00;100953.78;5048251;28;20049;-85
2023/05/25 00:39:42;;;;;;;56.42;50.70;;;;;;;13.03;100.00;100956.53;5039137;28;20049;-84
2023/05/25 00:42:09;;;;;;;56.72;51.22;;;;;;;13.20;100.00;100959.50;5044404;28;20045;-85
2023/05/25 00:44:36;;;;;;;61.40;55.55;;;;;;;13.24;100.00;100972.16;5044801;28;20067;-84
2023/05/25 00:47:05;;;;;;;54.78;49.15;;;;;;;13.18;100.00;100972.22;5039774;28;20430;-85
2023/05/25 00:49:35;;;;;;;61.53;55.50;;;;;;;13.00;100.00;100965.78;5038583;28;20042;-85
2023/05/25 00:52:02;;;;;;;59.35;53.55;;;;;;;12.69;100.00;100973.78;5040980;28;20060;-85
2023/05/25 00:54:29;;;;;;;56.28;50.67;;;;;;;12.34;100.00;100966.97;5041896;28;20438;-84
2023/05/25 00:57:01;;;;;;;57.00;51.42;;;;;;;12.23;100.00;100956.97;5043382;28;20080;-85
2023/05/25 00:59:34;;;;;;;62.72;56.42;;;;;;;12.54;100.00;100958.88;5045104;28;20094;-84
2023/05/25 01:02:05;;;;;;;60.53;54.42;;;;;;;12.81;100.00;100964.06;5033435;28;20435;-84
2023/05/25 01:04:35;;;;;;;55.92;50.45;;;;;;;13.10;100.00;100965.31;5043059;28;20068;-85
2023/05/25 01:07:04;;;;;;;53.30;48.20;;;;;;;12.99;100.00;100971.34;5034159;28;20057;-85
2023/05/25 01:09:34;;;;;;;56.85;51.13;;;;;;;12.54;100.00;100974.88;5038839;28;20057;-85
2023/05/25 01:12:03;;;;;;;56.90;50.97;;;;;;;12.36;100.00;100972.88;5040508;28;20107;-77
2023/05/25 01:14:31;;;;;;;59.08;53.42;;;;;;;12.45;100.00;100965.47;5039363;28;20053;-77
2023/05/25 01:16:58;;;;;;;61.65;55.15;;;;;;;11.99;100.00;100965.66;5038444;28;20054;-77
2023/05/25 01:19:27;;;;;;;64.13;57.72;;;;;;;12.20;100.00;100967.25;5040139;28;20508;-77
2023/05/25 01:22:03;;;;;;;102.38;94.03;;;;;;;12.75;100.00;100959.59;5040238;28;20049;-77
2023/05/25 01:24:35;;;;;;;88.15;80.28;;;;;;;12.68;100.00;100977.44;5037277;28;20052;-77
2023/05/25 01:27:11;;;;;;;80.43;73.28;;;;;;;12.06;100.00;100953.13;5038440;28;20049;-77
2023/05/25 01:29:41;;;;;;;88.75;81.20;;;;;;;12.02;100.00;100955.41;5038426;28;20053;-77
2023/05/25 01:32:08;;;;;;;88.30;80.70;;;;;;;12.44;100.00;100963.84;5038605;28;20045;-85
2023/05/25 01:34:39;;;;;;;100.47;92.55;;;;;;;12.55;100.00;100965.03;5039844;28;20150;-84
2023/05/25 01:37:08;;;;;;;95.80;87.95;;;;;;;11.88;100.00;100965.25;5036344;28;20480;-84
2023/05/25 01:39:35;;;;;;;93.85;86.20;;;;;;;12.29;100.00;100958.78;5041956;28;20534;-84
2023/05/25 01:42:01;;;;;;;87.07;79.38;;;;;;;12.37;100.00;100955.91;5041544;28;20506;-77
2023/05/25 01:44:29;;;;;;;94.43;86.60;;;;;;;12.43;100.00;100959.53;5039868;28;20045;-78
2023/05/25 01:47:03;;;;;;;100.60;92.78;;;;;;;12.44;100.00;100971.84;5037617;28;20060;-84
2023/05/25 01:49:38;;;;;;;79.78;72.65;;;;;;;12.17;100.00;100960.47;5040833;28;20049;-85
2023/05/25 01:52:15;;;;;;;73.78;67.05;;;;;;;12.19;100.00;100963.72;5039151;28;20057;-84
2023/05/25 01:54:47;;;;;;;74.00;67.05;;;;;;;11.81;100.00;100967.09;5039639;28;20076;-84
2023/05/25 01:57:17;;;;;;;86.53;78.63;;;;;;;12.32;100.00;100965.56;5035126;28;20061;-85
2023/05/25 01:59:47;;;;;;;76.97;69.78;;;;;;;12.24;100.00;100958.59;5037228;28;20050;-84
2023/05/25 02:02:15;;;;;;;78.03;70.93;;;;;;;12.45;100.00;100962.81;5050451;28;20407;-85
2023/05/25 02:04:43;;;;;;;85.80;78.25;;;;;;;12.33;100.00;100957.34;5033944;28;20052;-84
2023/05/25 02:07:11;;;;;;;86.53;79.03;;;;;;;12.40;100.00;100959.97;5045558;28;20496;-85
2023/05/25 02:09:38;;;;;;;93.13;85.13;;;;;;;12.30;100.00;100955.09;5040154;28;20061;-84
2023/05/25 02:12:08;;;;;;;98.65;89.93;;;;;;;11.91;100.00;100956.84;5047998;28;20064;-84
2023/05/25 02:14:35;;;;;;;101.65;93.10;;;;;;;12.20;100.00;100954.72;5039839;28;20053;-84
2023/05/25 02:17:02;;;;;;;89.38;81.40;;;;;;;12.11;100.00;100958.66;5045356;28;20059;-84
2023/05/25 02:19:29;;;;;;;76.15;69.55;;;;;;;12.04;100.00;100966.66;5043056;28;20041;-77
2023/05/25 02:21:56;;;;;;;97.45;89.88;;;;;;;11.40;100.00;100962.00;5042595;28;20086;-77
2023/05/25 02:24:25;;;;;;;105.90;97.70;;;;;;;12.12;100.00;100968.28;5043445;28;20045;-77
2023/05/25 02:26:52;;;;;;;116.30;107.60;;;;;;;12.10;100.00;100970.31;5042102;28;20048;-77
2023/05/25 02:29:19;;;;;;;97.30;89.20;;;;;;;11.46;100.00;100967.31;5042727;28;20045;-77
2023/05/25 02:31:46;;;;;;;109.22;101.00;;;;;;;11.63;100.00;100974.91;5042426;28;20056;-77
2023/05/25 02:34:14;;;;;;;86.75;79.70;;;;;;;11.45;100.00;100978.19;5042184;28;20056;-77
2023/05/25 02:36:42;;;;;;;77.43;70.72;;;;;;;11.60;100.00;100965.50;5043444;28;20050;-77
2023/05/25 02:39:10;;;;;;;79.20;72.35;;;;;;;11.93;100.00;100975.28;5044716;28;20120;-84
2023/05/25 02:41:39;;;;;;;63.15;57.03;;;;;;;11.98;100.00;100980.81;5044079;28;20053;-84
2023/05/25 02:44:06;;;;;;;62.38;56.58;;;;;;;12.05;100.00;100978.13;5042764;28;20049;-84
2023/05/25 02:46:33;;;;;;;62.65;56.00;;;;;;;11.56;100.00;100982.91;5043831;28;20056;-84
2023/05/25 02:49:00;;;;;;;63.65;57.53;;;;;;;11.85;100.00;100986.97;5044361;28;20049;-84
2023/05/25 02:51:27;;;;;;;70.95;64.55;;;;;;;11.90;100.00;100987.16;5044582;28;20080;-84
2023/05/25 02:53:54;;;;;;;61.08;55.45;;;;;;;11.47;100.00;100992.09;5038957;28;20049;-85
2023/05/25 02:56:22;;;;;;;69.32;63.22;;;;;;;11.85;100.00;100992.28;5046858;28;20056;-84
2023/05/25 02:58:50;;;;;;;64.53;58.53;;;;;;;11.84;100.00;100993.28;5036932;28;20503;-85
2023/05/25 03:01:18;;;;;;;65.85;60.10;;;;;;;11.96;100.00;101000.69;5041670;28;20049;-84
2023/05/25 03:03:45;;;;;;;62.90;57.30;;;;;;;12.11;100.00;101007.41;5040107;28;20053;-84
2023/05/25 03:06:13;;;;;;;58.15;52.85;;;;;;;12.15;100.00;101005.13;5042258;28;20083;-85
2023/05/25 03:08:40;;;;;;;58.17;53.00;;;;;;;12.00;100.00;101007.22;5041740;28;20075;-84
2023/05/25 03:11:07;;;;;;;61.95;56.45;;;;;;;12.04;100.00;100998.63;5045325;28;20072;-84
2023/05/25 03:13:34;;;;;;;59.92;54.30;;;;;;;12.08;100.00;101004.34;5039003;28;20445;-84
2023/05/25 03:16:02;;;;;;;56.30;51.33;;;;;;;11.96;100.00;101000.69;5044322;28;20041;-85
2023/05/25 03:18:29;;;;;;;56.67;51.83;;;;;;;12.03;100.00;101010.28;5042876;28;20052;-84
2023/05/25 03:20:56;;;;;;;53.88;48.60;;;;;;;12.20;100.00;101009.84;5043207;28;20534;-84
2023/05/25 03:23:23;;;;;;;58.30;53.13;;;;;;;11.80;100.00;101005.38;5043505;28;20046;-84
2023/05/25 03:25:50;;;;;;;61.88;56.42;;;;;;;12.17;100.00;101008.41;5040329;28;20049;-85
2023/05/25 03:28:17;;;;;;;67.07;61.42;;;;;;;12.33;100.00;101015.13;5050286;28;20045;-85
2023/05/25 03:30:44;;;;;;;60.83;55.83;;;;;;;12.45;100.00;101009.97;5042056;28;20068;-85
2023/05/25 03:33:13;;;;;;;56.05;51.22;;;;;;;12.48;100.00;101009.53;5038406;28;20053;-84
2023/05/25 03:35:40;;;;;;;51.63;46.92;;;;;;;12.38;100.00;101010.00;5032346;28;20107;-84
2023/05/25 03:38:07;;;;;;;52.15;47.45;;;;;;;12.06;100.00;101009.03;5036968;28;20312;-84
2023/05/25 03:40:34;;;;;;;54.58;49.33;;;;;;;12.01;100.00;101014.16;5046060;28;20048;-84
2023/05/25 03:43:01;;;;;;;57.55;51.40;;;;;;;12.06;100.00;101012.53;5042966;28;20048;-85
2023/05/25 03:45:28;;;;;;;52.38;47.78;;;;;;;12.06;100.00;101019.69;5041595;28;20550;-84
2023/05/25 03:47:54;;;;;;;62.45;57.15;;;;;;;12.47;100.00;101016.72;5043752;28;20567;-84
2023/05/25 03:50:23;;;;;;;58.60;53.53;;;;;;;12.75;100.00;101019.03;5041364;28;20477;-77
2023/05/25 03:52:50;;;;;;;55.60;50.80;;;;;;;12.65;100.00;101021.34;5041068;28;20061;-77
2023/05/25 03:55:17;;;;;;;59.00;53.67;;;;;;;12.82;100.00;101019.81;5043356;28;20661;-77
2023/05/25 03:57:44;;;;;;;57.83;52.83;;;;;;;13.04;100.00;101023.00;5040944;28;20041;-77
2023/05/25 04:00:12;;;;;;;58.10;53.15;;;;;;;13.15;100.00;101020.66;5042397;28;20056;-77
2023/05/25 04:02:39;;;;;;;56.17;51.30;;;;;;;13.33;100.00;101018.09;5032093;28;20482;-78
2023/05/25 04:05:06;;;;;;;55.47;50.83;;;;;;;13.37;100.00;101029.97;5041060;28;20053;-77
2023/05/25 04:07:35;;;;;;;56.97;51.78;;;;;;;13.55;100.00;101026.53;5041680;28;20064;-77
2023/05/25 04:10:02;;;;;;;57.30;52.38;;;;;;;13.56;100.00;101030.88;5030928;28;20064;-77
2023/05/25 04:12:29;;;;;;;58.70;53.80;;;;;;;13.68;100.00;101033.63;5042384;28;20060;-77
2023/05/25 04:14:56;;;;;;;60.53;55.22;;;;;;;13.66;100.00;101027.69;5042274;28;20434;-77
2023/05/25 04:17:24;;;;;;;62.15;56.58;;;;;;;13.92;100.00;101032.81;5033395;28;20438;-77
2023/05/25 04:19:51;;;;;;;64.05;59.10;;;;;;;14.16;100.00;101032.94;5042945;28;20059;-77
2023/05/25 04:22:18;;;;;;;70.82;65.18;;;;;;;14.30;100.00;101036.31;5044861;28;20426;-77
2023/05/25 04:24:46;;;;;;;62.25;56.90;;;;;;;14.49;100.00;101037.91;5040962;28;20048;-77
2023/05/25 04:27:14;;;;;;;57.03;51.47;;;;;;;14.35;100.00;101037.28;5044450;28;20437;-77
2023/05/25 04:29:41;;;;;;;54.60;49.45;;;;;;;14.21;100.00;101044.59;5043978;28;20041;-77
2023/05/25 04:32:09;;;;;;;55.13;50.33;;;;;;;14.32;100.00;101043.06;5039528;28;20055;-77
2023/05/25 04:34:36;;;;;;;59.13;53.88;;;;;;;14.60;100.00;101049.75;5039998;28;20105;-77
2023/05/25 04:37:04;;;;;;;61.38;56.08;;;;;;;14.72;100.00;101044.47;5040093;28;20045;-77
2023/05/25 04:39:31;;;;;;;66.93;61.33;;;;;;;14.77;100.00;101048.13;5039585;28;20128;-77
2023/05/25 04:42:03;;;;;;;65.53;60.03;;;;;;;14.72;100.00;101056.00;5041841;28;20115;-85
2023/05/25 04:44:30;;;;;;;59.00;53.83;;;;;;;15.00;100.00;101050.06;5042961;28;20045;-85
2023/05/25 04:46:58;;;;;;;57.22;52.42;;;;;;;14.79;100.00;101053.22;5041954;28;20049;-85
2023/05/25 04:49:25;;;;;;;58.92;53.72;;;;;;;15.27;100.00;101055.03;5030827;28;20052;-85
2023/05/25 04:51:52;;;;;;;60.72;55.63;;;;;;;15.61;100.00;101063.38;5038833;28;20055;-85
2023/05/25 04:54:19;;;;;;;57.83;53.00;;;;;;;15.48;100.00;101062.53;5044523;28;20053;-85
2023/05/25 04:56:46;;;;;;;55.63;51.03;;;;;;;15.63;100.00;101061.28;5036305;28;20045;-85
2023/05/25 04:59:15;;;;;;;57.38;52.47;;;;;;;15.63;100.00;101064.78;5038458;28;20048;-85
2023/05/25 05:01:43;;;;;;;57.67;52.97;;;;;;;15.69;100.00;101068.41;5038156;28;20087;-85
2023/05/25 05:04:10;;;;;;;54.83;50.40;;;;;;;15.74;100.00;101065.88;5039904;28;20060;-84
2023/05/25 05:06:37;;;;;;;50.58;46.20;;;;;;;15.92;100.00;101062.28;5040089;28;20052;-84
2023/05/25 05:09:04;;;;;;;49.10;45.03;;;;;;;16.15;100.00;101069.47;5040999;28;20080;-85
2023/05/25 05:11:31;;;;;;;55.45;51.15;;;;;;;16.52;100.00;101061.97;5042057;28;20041;-85
2023/05/25 05:13:58;;;;;;;53.70;49.33;;;;;;;16.61;100.00;101073.13;5041084;28;20431;-85
2023/05/25 05:16:32;;;;;;;59.35;54.30;;;;;;;16.78;100.00;101068.69;5031337;28;20244;-85
2023/05/25 05:19:00;;;;;;;60.97;56.08;;;;;;;16.97;100.00;101071.97;5039048;28;20052;-83
2023/05/25 05:21:27;;;;;;;60.25;55.15;;;;;;;17.00;100.00;101074.19;5041067;28;20049;-83
2023/05/25 05:23:54;;;;;;;55.35;50.75;;;;;;;17.12;100.00;101072.25;5044246;28;20056;-85
2023/05/25 05:26:21;;;;;;;58.67;53.63;;;;;;;17.19;100.00;101069.47;5037051;28;20053;-85
2023/05/25 05:28:49;;;;;;;55.25;50.85;;;;;;;17.32;100.00;101063.78;5044089;28;20507;-78
2023/05/25 05:31:16;;;;;;;59.65;54.83;;;;;;;17.49;100.00;101068.34;5032200;28;20597;-78
2023/05/25 05:33:44;;;;;;;58.95;53.95;;;;;;;17.47;100.00;101075.84;5040996;28;20084;-77
2023/05/25 05:36:11;;;;;;;64.13;58.65;;;;;;;17.79;100.00;101076.94;5037917;28;20049;-77
2023/05/25 05:38:39;;;;;;;59.53;54.53;;;;;;;18.03;100.00;101079.41;5035406;28;20050;-77
2023/05/25 05:41:12;;;;;;;75.03;69.22;;;;;;;18.39;100.00;101088.00;5041492;28;20494;-85
2023/05/25 05:43:40;;;;;;;75.15;69.22;;;;;;;18.60;100.00;101091.75;5037414;28;20081;-85
2023/05/25 05:46:08;;;;;;;64.43;59.33;;;;;;;18.28;100.00;101085.19;5045644;28;20041;-85
2023/05/25 05:48:38;;;;;;;68.97;63.38;;;;;;;18.82;100.00;101076.47;5041674;28;20041;-85
2023/05/25 05:51:07;;;;;;;80.15;73.90;;;;;;;19.17;100.00;101086.78;5041406;28;20132;-85
2023/05/25 05:53:35;;;;;;;67.45;62.35;;;;;;;19.34;100.00;101078.59;5030691;28;20060;-85
2023/05/25 05:56:02;;;;;;;70.13;64.53;;;;;;;19.43;100.00;101085.16;5040447;28;20057;-85
2023/05/25 05:58:31;;;;;;;71.28;65.68;;;;;;;19.49;100.00;101091.41;5032511;28;20135;-85
2023/05/25 06:00:58;;;;;;;61.55;56.45;;;;;;;19.96;100.00;101100.66;5038353;28;20049;-78
2023/05/25 06:03:27;;;;;;;60.53;55.65;;;;;;;19.88;100.00;101096.59;5035502;28;20580;-78
2023/05/25 06:05:54;;;;;;;56.58;51.80;;;;;;;20.02;100.00;101097.75;5037724;28;20491;-78
2023/05/25 06:08:22;;;;;;;64.38;59.10;;;;;;;20.43;100.00;101099.88;5039584;28;20421;-78
2023/05/25 06:10:49;;;;;;;61.17;56.03;;;;;;;20.38;100.00;101102.56;5041034;28;20490;-78
2023/05/25 06:13:16;;;;;;;40.60;36.90;;;;;;;20.20;100.00;101101.09;5043961;28;20041;-78
2023/05/25 06:15:43;;;;;;;40.15;36.63;;;;;;;20.29;100.00;101094.13;5038924;28;20529;-78
2023/05/25 06:18:10;;;;;;;42.75;39.28;;;;;;;20.18;100.00;101105.94;5039517;28;20049;-77
2023/05/25 06:20:37;;;;;;;47.33;43.22;;;;;;;20.22;100.00;101107.06;5040919;28;20526;-83
2023/05/25 06:23:04;;;;;;;52.08;47.50;;;;;;;20.50;100.00;101108.53;5041258;28;20502;-83
2023/05/25 06:25:32;;;;;;;47.92;43.63;;;;;;;20.60;100.00;101111.31;5041003;28;20053;-76
2023/05/25 06:27:59;;;;;;;41.78;38.28;;;;;;;19.83;100.00;101110.03;5030203;28;20046;-85
2023/05/25 06:30:26;;;;;;;45.90;42.10;;;;;;;19.65;100.00;101117.41;5043122;28;20407;-85
2023/05/25 06:32:53;;;;;;;49.15;44.97;;;;;;;19.90;100.00;101113.31;5029759;28;20697;-85
2023/05/25 06:35:20;;;;;;;45.70;41.88;;;;;;;20.18;100.00;101114.81;5041183;28;20056;-85
2023/05/25 06:37:47;;;;;;;45.38;41.53;;;;;;;20.21;100.00;101114.34;5032667;28;20048;-85
2023/05/25 06:40:14;;;;;;;51.17;46.97;;;;;;;20.47;100.00;101112.56;5034589;28;20136;-83
2023/05/25 06:42:43;;;;;;;46.72;42.10;;;;;;;20.64;100.00;101114.31;5039637;28;20049;-83
2023/05/25 06:45:11;;;;;;;47.97;44.08;;;;;;;20.90;100.00;101109.81;5029529;28;20467;-83
2023/05/25 06:47:38;;;;;;;47.03;42.92;;;;;;;20.83;100.00;101114.66;5036948;28;20052;-83
2023/05/25 06:50:06;;;;;;;43.00;39.40;;;;;;;20.50;100.00;101111.25;5046437;28;20045;-83
2023/05/25 06:52:33;;;;;;;42.20;38.42;;;;;;;20.82;100.00;101121.94;5043299;28;20045;-83
2023/05/25 06:55:00;;;;;;;43.65;39.97;;;;;;;21.11;100.00;101113.38;5041487;28;20064;-83
2023/05/25 06:57:27;;;;;;;43.22;39.63;;;;;;;20.95;100.00;101116.03;5049944;28;20045;-84
2023/05/25 06:59:55;;;;;;;45.42;41.25;;;;;;;21.20;100.00;101100.97;5046412;28;20525;-84
2023/05/25 07:02:22;;;;;;;57.08;52.88;;;;;;;21.87;100.00;101110.75;5034020;28;20049;-84
2023/05/25 07:04:50;;;;;;;42.95;39.47;;;;;;;21.92;100.00;101107.25;5047966;28;20053;-83
2023/05/25 07:07:17;;;;;;;40.97;37.67;;;;;;;21.60;100.00;101100.22;5047492;28;20132;-83
2023/05/25 07:09:44;;;;;;;34.03;31.08;;;;;;;21.79;100.00;101114.03;5040512;28;20053;-84
2023/05/25 07:12:11;;;;;;;51.70;47.45;;;;;;;22.44;100.00;101116.91;5045609;28;20103;-84
2023/05/25 07:14:38;;;;;;;33.53;30.80;;;;;;;21.89;100.00;101107.78;5042418;28;20480;-83
2023/05/25 07:17:07;;;;;;;36.70;33.50;;;;;;;22.26;100.00;101112.88;5042082;28;20049;-83
2023/05/25 07:19:34;;;;;;;38.53;35.38;;;;;;;22.00;100.00;101109.41;5041871;28;20049;-84
2023/05/25 07:22:00;;;;;;;49.40;45.28;;;;;;;22.57;100.00;101115.50;5042268;28;20051;-83
2023/05/25 07:24:27;;;;;;;44.78;40.58;;;;;;;22.75;100.00;101116.78;5043960;28;20045;-83
2023/05/25 07:26:54;;;;;;;49.92;45.22;;;;;;;23.09;100.00;101117.72;5041253;28;20104;-84
2023/05/25 07:29:21;;;;;;;41.88;38.38;;;;;;;22.86;100.00;101119.16;5038483;28;20045;-84
2023/05/25 07:31:48;;;;;;;40.05;36.85;;;;;;;22.90;100.00;101119.41;5043068;28;20079;-83
2023/05/25 07:34:16;;;;;;;42.30;38.63;;;;;;;22.99;100.00;101127.78;5039369;28;20503;-76
2023/05/25 07:36:43;;;;;;;35.95;32.92;;;;;;;22.74;100.00;101128.72;5032013;28;20049;-77
2023/05/25 07:39:10;;;;;;;38.13;35.03;;;;;;;23.02;100.00;101119.91;5041250;28;20045;-77
2023/05/25 07:41:37;;;;;;;31.30;28.63;;;;;;;22.62;100.00;101118.19;5040970;28;20056;-76
2023/05/25 07:44:04;;;;;;;33.92;30.92;;;;;;;22.95;100.00;101115.91;5040856;28;20060;-77
2023/05/25 07:46:31;;;;;;;36.83;33.78;;;;;;;23.17;100.00;101105.47;5042705;28;20072;-77
2023/05/25 07:48:58;;;;;;;38.78;35.58;;;;;;;23.41;100.00;101115.63;5038488;28;20056;-76
2023/05/25 07:51:29;;;;;;;32.95;29.77;;;;;;;23.30;100.00;101104.06;5038305;28;20044;-77
2023/05/25 07:53:57;;;;;;;27.02;24.83;;;;;;;22.87;100.00;101103.72;5043157;28;20041;-77
2023/05/25 07:56:25;;;;;;;30.48;27.88;;;;;;;23.43;100.00;101105.31;5040436;28;20065;-76
2023/05/25 07:58:52;;;;;;;28.98;26.70;;;;;;;23.45;100.00;101106.66;5033940;28;20550;-76
2023/05/25 08:01:19;;;;;;;33.47;30.65;;;;;;;23.70;100.00;101094.00;5039764;28;20534;-76
2023/05/25 08:03:45;;;;;;;32.95;30.10;;;;;;;23.91;100.00;101100.06;5035894;28;20049;-76
2023/05/25 08:06:12;;;;;;;29.10;26.48;;;;;;;23.62;100.00;101108.13;5042826;28;20053;-76
2023/05/25 08:08:43;;;;;;;31.90;29.25;;;;;;;23.92;100.00;101105.19;5039655;28;20064;-76
2023/05/25 08:11:10;;;;;;;29.50;26.77;;;;;;;23.89;100.00;101108.47;5040291;28;20061;-76
2023/05/25 08:13:37;;;;;;;24.83;22.90;;;;;;;22.74;100.00;101115.16;5043467;28;20438;-77
2023/05/25 08:16:04;;;;;;;29.40;27.15;;;;;;;23.30;100.00;101113.00;5034867;28;20053;-76
2023/05/25 08:18:31;;;;;;;42.42;39.33;;;;;;;24.26;100.00;101106.19;5041839;28;20057;-76
2023/05/25 08:20:58;;;;;;;32.83;30.27;;;;;;;24.65;100.00;101106.03;5040454;28;20060;-76
2023/05/25 08:23:25;;;;;;;31.10;28.73;;;;;;;24.77;100.00;101102.91;5035127;28;20061;-76
2023/05/25 08:25:53;;;;;;;26.48;24.20;;;;;;;24.28;100.00;101104.00;5039481;28;20045;-76
2023/05/25 08:28:20;;;;;;;29.55;26.95;;;;;;;24.40;100.00;101110.66;5049162;28;20041;-77
2023/05/25 08:30:48;;;;;;;26.83;24.80;;;;;;;24.19;100.00;101109.25;5040675;28;20050;-76
2023/05/25 08:33:15;;;;;;;28.23;26.02;;;;;;;24.37;100.00;101108.50;5046574;28;20057;-76
2023/05/25 08:35:42;;;;;;;26.23;24.20;;;;;;;24.77;100.00;101108.34;5030892;28;20045;-77
2023/05/25 08:38:09;;;;;;;28.83;26.52;;;;;;;25.09;100.00;101107.63;5033016;28;20046;-77
2023/05/25 08:40:39;;;;;;;26.20;23.80;;;;;;;24.91;100.00;101101.09;5041999;28;20084;-76
2023/05/25 08:43:10;;;;;;;24.27;22.23;;;;;;;23.79;100.00;101094.22;5040030;28;20050;-76
2023/05/25 08:45:37;;;;;;;26.90;24.83;;;;;;;25.08;100.00;101100.56;5040810;28;21573;-77
2023/05/25 08:48:11;;;;;;;24.38;22.67;;;;;;;24.89;100.00;101095.94;5041043;28;20442;-77
2023/05/25 08:50:40;;;;;;;28.15;25.95;;;;;;;25.46;100.00;101085.06;5043743;28;20480;-77
2023/05/25 08:53:10;;;;;;;27.13;24.77;;;;;;;25.15;100.00;101094.81;5040514;28;20525;-76
2023/05/25 08:55:42;;;;;;;25.88;23.80;;;;;;;24.95;100.00;101091.25;5039649;28;20437;-77
2023/05/25 08:58:17;;;;;;;25.00;23.20;;;;;;;24.17;100.00;101087.81;5033286;28;20135;-83
2023/05/25 09:00:51;;;;;;;28.50;25.60;;;;;;;24.62;100.00;101083.00;5039715;28;20058;-76
2023/05/25 09:03:18;;;;;;;28.45;26.15;;;;;;;25.29;100.00;101077.44;5034498;28;20518;-77
2023/05/25 09:05:46;;;;;;;31.08;28.77;;;;;;;25.46;100.00;101079.63;5039675;28;20060;-77
2023/05/25 09:08:14;;;;;;;29.92;27.38;;;;;;;25.54;100.00;101076.25;5032720;28;20083;-76
2023/05/25 09:10:42;;;;;;;25.92;24.08;;;;;;;25.22;100.00;101079.72;5041341;28;20060;-77
2023/05/25 09:13:08;;;;;;;28.33;25.95;;;;;;;25.88;100.00;101077.84;5036375;28;20049;-77
2023/05/25 09:15:37;;;;;;;25.42;23.23;;;;;;;25.54;100.00;101070.00;5040161;28;20431;-83
2023/05/25 09:18:04;;;;;;;25.85;23.50;;;;;;;25.28;100.00;101072.31;5030096;28;20050;-77
2023/05/25 09:20:31;;;;;;;32.70;30.08;;;;;;;26.18;100.00;101073.75;5030116;28;20443;-77
2023/05/25 09:22:58;;;;;;;26.60;24.20;;;;;;;26.16;100.00;101069.69;5041454;28;20569;-77
2023/05/25 09:25:27;;;;;;;26.15;23.90;;;;;;;25.95;100.00;101063.84;5040959;28;20492;-77
2023/05/25 09:27:57;;;;;;;27.23;24.77;;;;;;;24.17;100.00;101065.31;5048992;28;20110;-77
2023/05/25 09:30:24;;;;;;;24.80;22.83;;;;;;;24.90;100.00;101059.53;5038913;28;20132;-83
2023/05/25 09:32:52;;;;;;;24.92;23.02;;;;;;;25.40;100.00;101056.34;5041742;28;20083;-77
2023/05/25 09:35:19;;;;;;;28.17;25.33;;;;;;;25.74;100.00;101053.28;5040662;28;20418;-83
2023/05/25 09:37:47;;;;;;;25.05;23.15;;;;;;;26.11;100.00;101051.53;5031935;28;20498;-77
2023/05/25 09:40:15;;;;;;;25.75;23.75;;;;;;;26.17;100.00;101053.09;5039768;28;20064;-78
2023/05/25 09:42:42;;;;;;;26.33;23.98;;;;;;;26.32;100.00;101043.78;5039080;28;20434;-83
2023/05/25 09:45:09;;;;;;;26.48;24.02;;;;;;;25.30;100.00;101046.44;5041182;28;20053;-83
2023/05/25 09:47:37;;;;;;;23.85;21.95;;;;;;;25.43;100.00;101041.34;5041675;28;20049;-83
2023/05/25 09:50:06;;;;;;;22.65;20.60;;;;;;;25.66;100.00;101042.28;5044425;28;20045;-83
2023/05/25 09:52:33;;;;;;;22.75;20.67;;;;;;;26.46;100.00;101046.50;5039350;28;20059;-83
2023/05/25 09:55:02;;;;;;;23.27;21.45;;;;;;;26.23;100.00;101038.25;5037943;28;20055;-84
2023/05/25 09:57:29;;;;;;;23.25;21.25;;;;;;;26.66;100.00;101032.47;5032806;28;20419;-77
2023/05/25 09:59:56;;;;;;;22.95;21.15;;;;;;;26.19;100.00;101039.16;5035194;28;20052;-77
2023/05/25 10:02:23;;;;;;;23.80;21.67;;;;;;;26.71;100.00;101028.81;5047546;28;20064;-83
2023/05/25 10:04:50;;;;;;;23.25;21.25;;;;;;;26.87;100.00;101032.81;5038521;28;20049;-83
2023/05/25 10:07:19;;;;;;;23.13;21.33;;;;;;;26.97;100.00;101022.78;5035198;28;20076;-83
2023/05/25 10:09:47;;;;;;;23.10;21.05;;;;;;;26.01;100.00;101024.53;5040899;28;20481;-84
2023/05/25 10:12:19;;;;;;;22.35;20.30;;;;;;;25.85;100.00;101013.16;5040934;28;20132;-83
2023/05/25 10:14:49;;;;;;;24.50;22.17;;;;;;;25.75;100.00;101013.28;5040427;28;20056;-77
2023/05/25 10:17:20;;;;;;;22.58;20.70;;;;;;;26.10;100.00;101002.88;5039306;28;20045;-77
2023/05/25 10:19:54;;;;;;;22.60;20.67;;;;;;;25.97;100.00;100993.63;5036616;28;20050;-77
2023/05/25 10:22:30;;;;;;;23.98;22.02;;;;;;;26.58;100.00;100996.97;5041496;28;20387;-78
2023/05/25 10:25:04;;;;;;;23.75;21.85;;;;;;;26.98;100.00;100989.75;5038586;28;20054;-77
2023/05/25 10:27:39;;;;;;;23.80;21.90;;;;;;;27.45;100.00;100982.06;5050163;28;20057;-83
2023/05/25 10:30:08;;;;;;;22.73;20.73;;;;;;;27.21;100.00;100985.16;5042995;28;20474;-83
2023/05/25 10:32:40;;;;;;;21.77;19.77;;;;;;;28.07;100.00;100983.94;5047084;28;20118;-83
2023/05/25 10:35:10;;;;;;;21.65;19.73;;;;;;;26.82;100.00;100981.16;5039289;28;20053;-82
2023/05/25 10:37:39;;;;;;;20.75;19.10;;;;;;;25.07;100.00;100982.91;5051482;28;20411;-78
2023/05/25 10:40:08;;;;;;;21.27;19.67;;;;;;;26.30;100.00;100983.41;5043279;28;20045;-76
2023/05/25 10:42:37;;;;;;;21.23;19.70;;;;;;;27.73;100.00;100969.03;5041949;28;20146;-77
2023/05/25 10:45:05;;;;;;;21.80;20.20;;;;;;;26.27;100.00;100981.28;5046401;28;20135;-77
2023/05/25 10:47:33;;;;;;;22.27;20.73;;;;;;;27.81;100.00;100964.78;5042763;28;20426;-77
2023/05/25 10:50:02;;;;;;;21.50;19.98;;;;;;;27.10;100.00;100961.94;5038541;28;20045;-77
2023/05/25 10:52:30;;;;;;;22.15;19.98;;;;;;;27.65;100.00;100958.88;5043292;28;20056;-78
2023/05/25 10:55:00;;;;;;;22.90;21.20;;;;;;;27.14;100.00;100958.34;5041597;28;20052;-78
2023/05/25 10:57:28;;;;;;;23.00;21.13;;;;;;;28.03;100.00;100953.75;5047282;28;20136;-78
2023/05/25 11:00:04;;;;;;;20.33;18.52;;;;;;;27.16;100.00;100950.63;5046149;28;20594;-78
2023/05/25 11:02:47;;;;;;;21.20;19.02;;;;;;;26.90;100.00;100947.72;5050517;28;20052;-77
2023/05/25 11:05:33;;;;;;;;;;;;;;;26.88;100.00;100949.16;5043813;28;20041;-77